createdAt,value
2022-09-20T00:01:11.722Z,0.90
2022-09-20T00:03:40.765Z,0.98
2022-09-20T00:06:11.247Z,1.13
2022-09-20T00:08:40.152Z,1.05
2022-09-20T00:11:10.137Z,1.00
2022-09-20T00:13:40.868Z,1.23
2022-09-20T00:16:10.496Z,1.17
2022-09-20T00:18:39.060Z,1.10
2022-09-20T00:21:07.461Z,1.02
2022-09-20T00:23:36.404Z,1.20
2022-09-20T00:26:05.495Z,1.02
2022-09-20T00:28:34.626Z,1.33
2022-09-20T00:31:04.872Z,0.98
2022-09-20T00:33:47.025Z,1.30
2022-09-20T00:36:15.191Z,1.08
2022-09-20T00:38:43.026Z,1.30
2022-09-20T00:41:11.186Z,1.10
2022-09-20T00:43:41.670Z,1.10
2022-09-20T00:46:24.072Z,1.40
2022-09-20T00:48:54.907Z,1.52
2022-09-20T00:51:29.657Z,1.35
2022-09-20T00:53:59.696Z,1.20
2022-09-20T00:56:31.937Z,1.20
2022-09-20T00:59:07.303Z,1.40
2022-09-20T01:01:37.558Z,1.30
2022-09-20T01:04:06.386Z,1.13
2022-09-20T01:06:35.251Z,1.45
2022-09-20T01:09:07.638Z,1.00
2022-09-20T01:11:37.372Z,1.23
2022-09-20T01:14:05.719Z,1.30
2022-09-20T01:16:34.738Z,1.20
2022-09-20T01:19:11.342Z,1.20
2022-09-20T01:21:39.497Z,0.95
2022-09-20T01:24:19.844Z,1.45
2022-09-20T01:27:14.188Z,1.23
2022-09-20T01:30:02.396Z,1.48
2022-09-20T01:32:38.876Z,1.42
2022-09-20T01:35:09.649Z,1.13
2022-09-20T01:37:46.714Z,1.15
2022-09-20T01:40:22.874Z,1.38
2022-09-20T01:42:59.402Z,1.35
2022-09-20T01:45:31.787Z,1.85
2022-09-20T01:48:10.129Z,1.23
2022-09-20T01:50:55.472Z,1.65
2022-09-20T01:54:06.232Z,1.30
2022-09-20T01:56:55.800Z,1.30
2022-09-20T01:59:53.507Z,1.30
2022-09-20T02:03:15.186Z,1.10
2022-09-20T02:06:08.635Z,1.40
2022-09-20T02:09:21.386Z,1.30
2022-09-20T02:12:17.475Z,1.35
2022-09-20T02:14:54.120Z,1.30
2022-09-20T02:17:35.175Z,1.35
2022-09-20T02:20:20.398Z,0.73
2022-09-20T02:23:06.580Z,1.00
2022-09-20T02:25:56.816Z,1.00
2022-09-20T02:28:38.616Z,1.00
2022-09-20T02:31:17.303Z,1.33
2022-09-20T02:34:17.971Z,1.17
2022-09-20T02:36:56.571Z,1.02
2022-09-20T02:39:36.718Z,0.85
2022-09-20T02:42:12.490Z,1.50
2022-09-20T02:44:53.413Z,1.20
2022-09-20T02:47:28.664Z,1.40
2022-09-20T02:50:10.016Z,1.10
2022-09-20T02:52:45.046Z,1.30
2022-09-20T02:55:19.481Z,1.48
2022-09-20T02:57:55.189Z,1.30
2022-09-20T03:00:26.842Z,1.35
2022-09-20T03:03:07.932Z,1.58
2022-09-20T03:05:47.411Z,1.20
2022-09-20T03:08:32.058Z,1.80
2022-09-20T03:11:13.438Z,1.65
2022-09-20T03:14:11.257Z,1.50
2022-09-20T03:16:52.489Z,1.73
2022-09-20T03:19:34.293Z,1.55
2022-09-20T03:22:10.741Z,1.30
2022-09-20T03:24:49.357Z,1.42
2022-09-20T03:27:28.204Z,1.48
2022-09-20T03:30:16.135Z,1.30
2022-09-20T03:32:56.705Z,1.55
2022-09-20T03:35:37.054Z,1.33
2022-09-20T03:38:24.834Z,1.80
2022-09-20T03:41:27.405Z,1.23
2022-09-20T03:44:19.506Z,1.50
2022-09-20T03:46:48.552Z,1.42
2022-09-20T03:49:57.915Z,1.58
2022-09-20T03:52:46.468Z,1.35
2022-09-20T03:55:50.746Z,1.30
2022-09-20T03:58:34.193Z,1.30
2022-09-20T04:01:13.553Z,1.85
2022-09-20T04:03:52.219Z,1.33
2022-09-20T04:06:40.617Z,1.40
2022-09-20T04:09:39.060Z,2.35
2022-09-20T04:12:15.487Z,1.75
2022-09-20T04:14:48.686Z,1.90
2022-09-20T04:17:28.453Z,1.67
2022-09-20T04:20:03.301Z,1.55
2022-09-20T04:22:32.067Z,1.60
2022-09-20T04:25:05.470Z,1.85
2022-09-20T04:30:15.904Z,1.60
2022-09-20T04:32:50.584Z,1.60
2022-09-20T04:35:51.727Z,1.40
2022-09-20T04:38:21.474Z,1.67
2022-09-20T04:41:09.307Z,1.83
2022-09-20T04:44:01.809Z,1.80
2022-09-20T04:47:08.168Z,1.60
2022-09-20T04:50:02.257Z,1.48
2022-09-20T04:53:00.804Z,2.15
2022-09-20T04:55:52.518Z,1.73
2022-09-20T04:58:39.395Z,1.48
2022-09-20T05:01:50.655Z,1.58
2022-09-20T05:05:03.468Z,1.80
2022-09-20T05:08:07.938Z,1.77
2022-09-20T05:11:04.262Z,1.98
2022-09-20T05:13:44.358Z,1.92
2022-09-20T05:16:22.093Z,1.70
2022-09-20T05:19:13.870Z,1.55
2022-09-20T05:22:10.738Z,1.85
2022-09-20T05:25:07.472Z,2.17
2022-09-20T05:27:44.325Z,1.77
2022-09-20T05:30:20.494Z,1.67
2022-09-20T05:32:58.746Z,1.77
2022-09-20T05:35:33.636Z,1.80
2022-09-20T05:38:12.606Z,1.80
2022-09-20T05:40:53.011Z,1.70
2022-09-20T05:43:27.723Z,1.60
2022-09-20T05:46:06.233Z,1.85
2022-09-20T05:48:41.352Z,1.90
2022-09-20T05:51:17.538Z,1.77
2022-09-20T05:54:17.956Z,1.95
2022-09-20T05:56:54.820Z,1.50
2022-09-20T05:59:38.147Z,1.75
2022-09-20T06:02:22.456Z,1.73
2022-09-20T06:04:59.895Z,1.45
2022-09-20T06:07:43.439Z,1.80
2022-09-20T06:10:23.411Z,1.75
2022-09-20T06:13:00.891Z,2.05
2022-09-20T06:15:37.266Z,1.73
2022-09-20T06:18:19.165Z,1.90
2022-09-20T06:20:55.909Z,1.60
2022-09-20T06:23:24.222Z,1.83
2022-09-20T06:25:57.602Z,1.75
2022-09-20T06:30:58.179Z,1.63
2022-09-20T06:33:28.289Z,1.83
2022-09-20T06:36:20.749Z,1.70
2022-09-20T06:39:16.384Z,1.98
2022-09-20T06:41:44.867Z,1.70
2022-09-20T06:44:14.029Z,1.70
2022-09-20T06:46:42.214Z,1.48
2022-09-20T06:49:10.256Z,1.60
2022-09-20T06:51:40.033Z,1.60
2022-09-20T06:54:11.351Z,1.98
2022-09-20T06:56:39.274Z,1.85
2022-09-20T06:59:10.360Z,1.40
2022-09-20T07:01:40.189Z,1.90
2022-09-20T07:04:09.788Z,1.35
2022-09-20T07:06:37.851Z,1.67
2022-09-20T07:09:05.990Z,1.80
2022-09-20T07:11:34.922Z,1.90
2022-09-20T07:14:03.224Z,1.80
2022-09-20T07:16:31.408Z,1.80
2022-09-20T07:19:00.672Z,1.70
2022-09-20T07:21:28.571Z,1.85
2022-09-20T07:23:57.877Z,2.45
2022-09-20T07:26:28.360Z,2.25
2022-09-20T07:28:57.338Z,1.90
2022-09-20T07:31:27.552Z,1.80
2022-09-20T07:33:55.458Z,2.03
2022-09-20T07:36:24.722Z,2.30
2022-09-20T07:38:53.888Z,2.00
2022-09-20T07:41:22.761Z,2.10
2022-09-20T07:43:52.203Z,2.50
2022-09-20T07:46:22.092Z,2.35
2022-09-20T07:48:50.086Z,1.90
2022-09-20T07:51:18.030Z,2.30
2022-09-20T07:53:47.240Z,2.00
2022-09-20T07:56:18.267Z,2.45
2022-09-20T07:58:50.070Z,2.47
2022-09-20T08:01:21.091Z,2.55
2022-09-20T08:03:49.151Z,2.38
2022-09-20T08:06:18.453Z,2.70
2022-09-20T08:08:49.348Z,2.97
2022-09-20T08:11:19.087Z,2.92
2022-09-20T08:14:06.038Z,2.80
2022-09-20T08:16:39.391Z,2.72
2022-09-20T08:19:07.321Z,2.50
2022-09-20T08:21:37.952Z,2.72
2022-09-20T08:24:07.664Z,2.90
2022-09-20T08:26:36.541Z,2.70
2022-09-20T08:29:05.795Z,3.00
2022-09-20T08:31:36.687Z,2.72
2022-09-20T08:34:06.535Z,3.28
2022-09-20T08:36:37.245Z,2.75
2022-09-20T08:41:58.333Z,2.80
2022-09-20T08:44:34.796Z,2.97
2022-09-20T08:47:10.234Z,2.95
2022-09-20T08:49:40.529Z,2.67
2022-09-20T08:52:12.337Z,2.78
2022-09-20T08:54:43.511Z,2.60
2022-09-20T08:57:16.008Z,2.65
2022-09-20T08:59:44.568Z,3.03
2022-09-20T09:02:17.143Z,2.95
2022-09-20T09:04:45.631Z,2.90
2022-09-20T09:07:15.299Z,3.17
2022-09-20T09:09:46.586Z,3.53
2022-09-20T09:12:23.688Z,3.88
2022-09-20T09:14:55.193Z,3.63
2022-09-20T09:17:28.329Z,3.83
2022-09-20T09:19:57.408Z,3.25
2022-09-20T09:22:35.121Z,3.83
2022-09-20T09:25:22.808Z,3.10
2022-09-20T09:27:53.052Z,2.75
2022-09-20T09:30:23.417Z,2.92
2022-09-20T09:32:51.526Z,3.25
2022-09-20T09:35:26.628Z,3.30
2022-09-20T09:37:56.739Z,2.90
2022-09-20T09:40:27.159Z,3.13
2022-09-20T09:42:57.582Z,2.97
2022-09-20T09:45:30.321Z,3.40
2022-09-20T09:48:00.388Z,3.85
2022-09-20T09:50:31.520Z,3.30
2022-09-20T09:53:02.835Z,2.97
2022-09-20T09:55:52.775Z,2.75
2022-09-20T09:58:36.588Z,3.13
2022-09-20T10:01:08.856Z,2.20
2022-09-20T10:03:48.654Z,2.72
2022-09-20T10:06:24.912Z,2.85
2022-09-20T10:09:10.132Z,2.47
2022-09-20T10:11:58.402Z,3.22
2022-09-20T10:14:36.731Z,2.78
2022-09-20T10:17:24.903Z,2.92
2022-09-20T10:20:07.580Z,2.67
2022-09-20T10:23:06.666Z,2.88
2022-09-20T10:25:43.142Z,2.25
2022-09-20T10:28:32.711Z,2.15
2022-09-20T10:31:11.140Z,2.13
2022-09-20T10:33:46.835Z,2.20
2022-09-20T10:36:26.821Z,1.70
2022-09-20T10:38:59.687Z,1.83
2022-09-20T10:42:05.338Z,2.03
2022-09-20T10:44:51.719Z,1.90
2022-09-20T10:47:21.357Z,1.52
2022-09-20T10:49:58.080Z,1.42
2022-09-20T10:52:41.214Z,1.70
2022-09-20T10:55:26.113Z,1.80
2022-09-20T10:58:11.248Z,1.55
2022-09-20T11:00:48.926Z,1.45
2022-09-20T11:03:29.286Z,1.40
2022-09-20T11:06:07.924Z,1.65
2022-09-20T11:08:38.116Z,1.15
2022-09-20T11:11:10.622Z,1.48
2022-09-20T11:13:45.600Z,1.37
2022-09-20T11:16:19.240Z,1.40
2022-09-20T11:18:51.544Z,1.83
2022-09-20T11:21:22.821Z,1.95
2022-09-20T11:23:56.688Z,1.23
2022-09-20T11:26:32.126Z,1.85
2022-09-20T11:29:06.438Z,1.23
2022-09-20T11:31:40.534Z,1.67
2022-09-20T11:34:13.393Z,1.52
2022-09-20T11:36:46.039Z,1.35
2022-09-20T11:39:19.201Z,1.33
2022-09-20T11:41:47.991Z,1.60
2022-09-20T11:44:19.803Z,1.48
2022-09-20T11:46:55.891Z,1.80
2022-09-20T11:49:28.306Z,1.70
2022-09-20T11:52:19.561Z,1.25
2022-09-20T11:55:30.193Z,1.42
2022-09-20T11:58:08.091Z,1.52
2022-09-20T12:00:38.680Z,1.73
2022-09-20T12:03:21.722Z,1.42
2022-09-20T12:05:59.277Z,1.83
2022-09-20T12:08:30.416Z,2.00
2022-09-20T12:11:04.053Z,1.70
2022-09-20T12:13:35.294Z,1.52
2022-09-20T12:16:05.851Z,1.55
2022-09-20T12:19:04.467Z,1.50
2022-09-20T12:21:52.464Z,1.48
2022-09-20T12:24:23.419Z,1.55
2022-09-20T12:26:55.819Z,1.83
2022-09-20T12:30:08.492Z,1.40
2022-09-20T12:33:02.153Z,1.70
2022-09-20T12:36:16.326Z,1.40
2022-09-20T12:39:03.454Z,1.73
2022-09-20T12:41:47.958Z,1.27
2022-09-20T12:44:29.396Z,1.80
2022-09-20T12:46:59.720Z,1.42
2022-09-20T12:49:57.928Z,2.08
2022-09-20T12:52:48.417Z,1.50
2022-09-20T12:55:33.720Z,1.15
2022-09-20T12:58:05.341Z,1.30
2022-09-20T13:00:38.932Z,1.13
2022-09-20T13:03:25.604Z,1.40
2022-09-20T13:06:23.643Z,1.23
2022-09-20T13:09:03.767Z,1.48
2022-09-20T13:11:37.322Z,1.52
2022-09-20T13:14:11.654Z,1.63
2022-09-20T13:16:48.628Z,1.50
2022-09-20T13:19:19.189Z,1.40
2022-09-20T13:21:55.190Z,1.35
2022-09-20T13:24:26.904Z,1.23
2022-09-20T13:27:01.776Z,1.50
2022-09-20T13:29:35.184Z,1.38
2022-09-20T13:34:45.847Z,1.10
2022-09-20T13:37:21.018Z,1.40
2022-09-20T13:39:54.650Z,1.23
2022-09-20T13:42:22.886Z,1.48
2022-09-20T13:44:50.972Z,1.10
2022-09-20T13:47:26.789Z,1.42
2022-09-20T13:50:00.020Z,1.00
2022-09-20T13:52:29.698Z,1.35
2022-09-20T13:54:58.899Z,1.27
2022-09-20T13:57:29.191Z,1.45
2022-09-20T13:59:59.560Z,1.20
2022-09-20T14:02:31.475Z,1.83
2022-09-20T14:05:02.685Z,1.40
2022-09-20T14:07:31.745Z,1.52
2022-09-20T14:10:01.645Z,1.50
2022-09-20T14:12:30.035Z,1.50
2022-09-20T14:14:59.420Z,1.73
2022-09-20T14:17:37.095Z,1.40
2022-09-20T14:20:05.731Z,1.55
2022-09-20T14:22:33.634Z,1.50
2022-09-20T14:25:19.949Z,1.30
2022-09-20T14:27:47.857Z,1.50
2022-09-20T14:30:32.395Z,1.55
2022-09-20T14:33:00.623Z,1.70
2022-09-20T14:35:28.962Z,1.90
2022-09-20T14:38:00.321Z,1.55
2022-09-20T14:40:31.937Z,1.45
2022-09-20T14:43:01.852Z,1.30
2022-09-20T14:45:32.835Z,1.85
2022-09-20T14:48:09.633Z,1.40
2022-09-20T14:50:41.401Z,1.77
2022-09-20T14:53:29.841Z,1.50
2022-09-20T14:56:08.388Z,1.60
2022-09-20T14:59:05.458Z,0.90
2022-09-20T15:01:34.416Z,1.25
2022-09-20T15:04:09.684Z,1.40
2022-09-20T15:06:38.959Z,1.20
2022-09-20T15:09:07.864Z,1.00
2022-09-20T15:11:37.065Z,1.55
2022-09-20T15:14:04.887Z,1.77
2022-09-20T15:16:33.321Z,1.50
2022-09-20T15:19:01.213Z,1.65
2022-09-20T15:21:29.045Z,1.40
2022-09-20T15:23:56.944Z,1.42
2022-09-20T15:26:24.814Z,1.55
2022-09-20T15:28:54.027Z,1.35
2022-09-20T15:31:21.952Z,1.33
2022-09-20T15:33:49.782Z,1.35
2022-09-20T15:36:17.578Z,1.38
2022-09-20T15:38:45.633Z,1.27
2022-09-20T15:41:13.497Z,1.30
2022-09-20T15:43:43.199Z,1.30
2022-09-20T15:46:21.287Z,1.17
2022-09-20T15:48:49.216Z,1.70
2022-09-20T15:51:17.279Z,1.30
2022-09-20T15:53:48.578Z,1.38
2022-09-20T15:56:19.325Z,1.50
2022-09-20T15:58:51.098Z,1.40
2022-09-20T16:01:20.675Z,1.20
2022-09-20T16:03:48.961Z,1.73
2022-09-20T16:06:17.625Z,1.10
2022-09-20T16:08:45.712Z,1.08
2022-09-20T16:11:20.416Z,1.50
2022-09-20T16:13:54.342Z,1.50
2022-09-20T16:16:23.715Z,1.80
2022-09-20T16:19:09.136Z,1.35
2022-09-20T16:21:39.141Z,1.33
2022-09-20T16:24:07.977Z,1.30
2022-09-20T16:26:37.898Z,1.48
2022-09-20T16:29:07.303Z,1.13
2022-09-20T16:31:40.169Z,1.40
2022-09-20T16:34:13.302Z,1.50
2022-09-20T16:36:43.241Z,1.23
2022-09-20T16:39:12.260Z,1.50
2022-09-20T16:41:40.616Z,1.70
2022-09-20T16:44:09.094Z,1.40
2022-09-20T16:46:38.296Z,3.47
2022-09-20T16:49:09.219Z,2.03
2022-09-20T16:51:39.327Z,1.50
2022-09-20T16:54:11.593Z,1.77
2022-09-20T16:56:40.652Z,1.40
2022-09-20T16:59:09.035Z,1.23
2022-09-20T17:01:39.693Z,1.35
2022-09-20T17:04:08.623Z,1.48
2022-09-20T17:06:38.705Z,1.52
2022-09-20T17:09:07.763Z,1.60
2022-09-20T17:11:37.707Z,1.35
2022-09-20T17:14:06.184Z,1.90
2022-09-20T17:16:35.568Z,2.00
2022-09-20T17:19:08.685Z,1.80
2022-09-20T17:21:38.629Z,1.63
2022-09-20T17:24:07.822Z,1.90
2022-09-20T17:26:38.287Z,1.83
2022-09-20T17:29:09.757Z,1.70
2022-09-20T17:31:41.600Z,2.10
2022-09-20T17:34:12.492Z,2.08
2022-09-20T17:36:42.806Z,2.20
2022-09-20T17:39:12.867Z,1.85
2022-09-20T17:41:41.994Z,1.90
2022-09-20T17:44:11.846Z,1.45
2022-09-20T17:46:40.990Z,1.60
2022-09-20T17:49:12.343Z,1.80
2022-09-20T17:51:42.242Z,1.40
2022-09-20T17:54:13.569Z,1.58
2022-09-20T17:56:43.385Z,1.30
2022-09-20T17:59:15.601Z,1.30
2022-09-20T18:01:44.387Z,1.60
2022-09-20T18:04:14.309Z,1.38
2022-09-20T18:06:45.640Z,1.67
2022-09-20T18:09:16.125Z,2.00
2022-09-20T18:11:46.416Z,1.70
2022-09-20T18:14:14.424Z,1.48
2022-09-20T18:16:44.124Z,1.67
2022-09-20T18:19:14.157Z,1.83
2022-09-20T18:21:41.996Z,2.20
2022-09-20T18:24:11.258Z,2.13
2022-09-20T18:26:40.275Z,1.60
2022-09-20T18:29:12.054Z,2.20
2022-09-20T18:31:43.144Z,2.10
2022-09-20T18:34:15.355Z,2.10
2022-09-20T18:36:43.228Z,1.98
2022-09-20T18:39:11.245Z,2.45
2022-09-20T18:41:41.642Z,2.50
2022-09-20T18:44:14.474Z,1.95
2022-09-20T18:46:42.341Z,2.50
2022-09-20T18:49:12.632Z,2.50
2022-09-20T18:51:42.892Z,1.90
2022-09-20T18:54:12.115Z,2.22
2022-09-20T18:56:41.323Z,2.00
2022-09-20T18:59:15.351Z,2.15
2022-09-20T19:02:19.753Z,1.92
2022-09-20T19:05:06.780Z,1.50
2022-09-20T19:07:48.292Z,1.95
2022-09-20T19:10:25.717Z,1.60
2022-09-20T19:13:01.676Z,1.73
2022-09-20T19:15:54.851Z,1.52
2022-09-20T19:18:49.153Z,1.63
2022-09-20T19:21:25.121Z,1.63
2022-09-20T19:24:04.942Z,1.60
2022-09-20T19:26:37.923Z,1.73
2022-09-20T19:29:18.465Z,1.70
2022-09-20T19:31:48.642Z,1.60
2022-09-20T19:34:21.227Z,1.77
2022-09-20T19:37:09.566Z,1.63
2022-09-20T19:39:54.785Z,1.90
2022-09-20T19:42:29.211Z,2.25
2022-09-20T19:45:03.752Z,1.73
2022-09-20T19:47:45.038Z,1.80
2022-09-20T19:50:17.052Z,1.58
2022-09-20T19:52:45.585Z,1.90
2022-09-20T19:55:16.189Z,2.40
2022-09-20T19:57:47.025Z,1.75
2022-09-20T20:00:17.034Z,2.00
2022-09-20T20:02:46.084Z,2.63
2022-09-20T20:05:16.192Z,2.00
2022-09-20T20:07:49.937Z,2.03
2022-09-20T20:10:27.989Z,2.13
2022-09-20T20:13:04.171Z,2.00
2022-09-20T20:15:43.265Z,2.10
2022-09-20T20:18:20.722Z,2.33
2022-09-20T20:20:50.949Z,2.53
2022-09-20T20:23:50.195Z,2.85
2022-09-20T20:26:21.989Z,3.28
2022-09-20T20:28:50.777Z,3.13
2022-09-20T20:31:19.576Z,3.03
2022-09-20T20:33:47.572Z,3.28
2022-09-20T20:36:17.132Z,2.47
2022-09-20T20:38:49.493Z,2.63
2022-09-20T20:41:20.342Z,2.40
2022-09-20T20:43:48.660Z,2.95
2022-09-20T20:46:18.890Z,3.20
2022-09-20T20:48:47.205Z,3.00
2022-09-20T20:51:16.689Z,3.20
2022-09-20T20:53:47.200Z,3.20
2022-09-20T20:56:16.922Z,2.67
2022-09-20T20:58:47.605Z,2.70
2022-09-20T21:01:17.368Z,2.83
2022-09-20T21:03:48.512Z,2.90
2022-09-20T21:06:17.406Z,2.83
2022-09-20T21:08:49.265Z,3.00
2022-09-20T21:11:21.888Z,2.90
2022-09-20T21:13:51.367Z,3.03
2022-09-20T21:16:20.657Z,3.03
2022-09-20T21:18:49.840Z,3.60
2022-09-20T21:21:19.329Z,3.08
2022-09-20T21:23:48.604Z,3.47
2022-09-20T21:26:17.165Z,3.78
2022-09-20T21:28:48.697Z,3.45
2022-09-20T21:31:18.558Z,3.20
2022-09-20T21:33:46.937Z,3.03
2022-09-20T21:36:16.807Z,3.28
2022-09-20T21:38:45.828Z,2.83
2022-09-20T21:41:15.747Z,2.88
2022-09-20T21:43:44.974Z,3.00
2022-09-20T21:46:13.964Z,3.00
2022-09-20T21:48:43.148Z,2.60
2022-09-20T21:51:12.905Z,3.03
2022-09-20T21:53:41.024Z,2.83
2022-09-20T21:56:10.787Z,3.47
2022-09-20T21:58:40.094Z,2.70
2022-09-20T22:01:11.239Z,2.85
2022-09-20T22:03:40.673Z,2.90
2022-09-20T22:06:12.484Z,2.80
2022-09-20T22:08:42.150Z,2.50
2022-09-20T22:11:14.977Z,2.67
2022-09-20T22:13:43.880Z,2.47
2022-09-20T22:16:12.778Z,2.63
2022-09-20T22:18:42.638Z,2.72
2022-09-20T22:21:13.741Z,2.75
2022-09-20T22:23:42.329Z,2.67
2022-09-20T22:26:11.785Z,2.70
2022-09-20T22:28:39.647Z,2.97
2022-09-20T22:31:09.647Z,2.80
2022-09-20T22:33:41.756Z,2.63
2022-09-20T22:36:12.512Z,3.00
2022-09-20T22:38:40.359Z,2.45
2022-09-20T22:41:08.385Z,3.00
2022-09-20T22:43:37.007Z,2.92
2022-09-20T22:46:06.876Z,2.80
2022-09-20T22:48:35.553Z,2.97
2022-09-20T22:51:05.329Z,2.95
2022-09-20T22:53:35.112Z,3.05
2022-09-20T22:56:04.963Z,3.00
2022-09-20T22:58:34.789Z,2.67
2022-09-20T23:01:11.719Z,2.67
2022-09-20T23:03:40.623Z,2.83
2022-09-20T23:06:13.891Z,2.90
2022-09-20T23:08:43.254Z,3.10
2022-09-20T23:11:11.520Z,4.00
2022-09-20T23:13:39.493Z,3.40
2022-09-20T23:16:15.012Z,3.15
2022-09-20T23:18:43.412Z,3.28
2022-09-20T23:21:11.477Z,3.08
2022-09-20T23:23:41.572Z,3.03
2022-09-20T23:26:12.988Z,3.25
2022-09-20T23:28:42.425Z,3.03
2022-09-20T23:31:12.576Z,2.90
2022-09-20T23:33:46.012Z,3.17
2022-09-20T23:36:14.718Z,3.38
2022-09-20T23:38:42.663Z,4.15
2022-09-20T23:41:14.403Z,3.50
2022-09-20T23:43:43.214Z,2.88
2022-09-20T23:46:13.050Z,2.92
2022-09-20T23:48:41.434Z,3.10
2022-09-20T23:51:10.787Z,3.15
2022-09-20T23:53:38.866Z,2.90
2022-09-20T23:56:07.787Z,3.08
2022-09-20T23:58:38.659Z,2.90
